Time;durP1;ratioP1;P1;durP2;ratioP2;P2;SDS_P1;SDS_P2;PMS_P1;PMS_P2;Temp;Humidity;BMP_temperature;BMP_pressure;BME280_temperature;BME280_humidity;BME280_pressure;Samples;Min_cycle;Max_cycle;Signal;HPM_P1;HPM_P2
2023/05/26 00:01:20;;;;;;;29.83;5.90;;;;;;;;;;5055018;28;20041;-67
2023/05/26 00:03:48;;;;;;;26.05;5.78;;;9.70;99.90;;;;;;5053382;28;20044;-67
2023/05/26 00:06:15;;;;;;;25.75;5.63;;;9.60;99.90;;;;;;5054357;28;20505;-66
2023/05/26 00:08:40;;;;;;;22.50;6.50;;;9.70;99.90;;;;;;5055182;28;20116;-66
2023/05/26 00:11:06;;;;;;;28.40;5.38;;;9.60;99.90;;;;;;5055025;28;20485;-67
2023/05/26 00:13:32;;;;;;;23.00;5.70;;;9.60;99.90;;;;;;5054119;28;20037;-67
2023/05/26 00:15:58;;;;;;;28.38;4.68;;;9.70;99.90;;;;;;5054734;28;20110;-66
2023/05/26 00:18:27;;;;;;;28.95;5.10;;;;;;;;;;5053318;28;20044;-66
2023/05/26 00:20:56;;;;;;;22.27;4.55;;;9.60;99.90;;;;;;5055912;28;20037;-66
2023/05/26 00:23:22;;;;;;;24.70;5.30;;;9.70;99.90;;;;;;5054229;28;20119;-66
2023/05/26 00:25:49;;;;;;;31.25;6.53;;;9.70;99.90;;;;;;5054660;28;20516;-66
2023/05/26 00:28:14;;;;;;;28.75;5.57;;;9.70;99.90;;;;;;5054349;28;20041;-67
2023/05/26 00:30:40;;;;;;;30.75;6.53;;;;;;;;;;5054483;28;20037;-66
2023/05/26 00:33:06;;;;;;;28.42;5.50;;;;;;;;;;5053833;28;20540;-66
2023/05/26 00:35:32;;;;;;;29.90;5.45;;;9.60;99.90;;;;;;5056273;28;20029;-67
2023/05/26 00:37:57;;;;;;;23.45;5.60;;;9.60;99.90;;;;;;5054361;28;20401;-66
2023/05/26 00:40:23;;;;;;;28.17;5.88;;;9.60;99.90;;;;;;5054350;28;20120;-66
2023/05/26 00:42:49;;;;;;;25.80;5.70;;;;;;;;;;5053744;28;20044;-66
2023/05/26 00:45:15;;;;;;;25.25;5.72;;;;;;;;;;5054288;28;20029;-66
2023/05/26 00:47:41;;;;;;;28.17;5.47;;;9.40;99.90;;;;;;5070470;28;20035;-66
2023/05/26 00:50:07;;;;;;;27.83;6.45;;;9.30;99.90;;;;;;5054364;28;20029;-67
2023/05/26 00:52:34;;;;;;;32.83;6.35;;;9.50;99.90;;;;;;5053735;28;20064;-66
2023/05/26 00:55:00;;;;;;;25.25;5.95;;;9.50;99.90;;;;;;5053953;28;20059;-66
2023/05/26 00:57:29;;;;;;;36.60;6.53;;;9.50;99.90;;;;;;5053461;28;20055;-66
2023/05/26 00:59:56;;;;;;;34.97;4.95;;;;;;;;;;5053787;28;20119;-67
2023/05/26 01:02:22;;;;;;;21.77;5.35;;;;;;;;;;5073384;28;20040;-66
2023/05/26 01:04:52;;;;;;;26.42;5.97;;;9.40;99.90;;;;;;5073324;28;20128;-66
2023/05/26 01:07:18;;;;;;;24.95;6.45;;;;;;;;;;5073729;28;20608;-67
2023/05/26 01:09:43;;;;;;;41.63;6.10;;;9.40;99.90;;;;;;5073914;28;20044;-66
2023/05/26 01:12:15;;;;;;;27.80;6.18;;;9.30;99.90;;;;;;5072642;28;20568;-65
2023/05/26 01:14:56;;;;;;;30.00;6.15;;;9.50;99.90;;;;;;5073605;28;20087;-66
2023/05/26 01:17:34;;;;;;;30.30;6.57;;;9.40;99.90;;;;;;5071592;28;20051;-66
2023/05/26 01:20:22;;;;;;;33.97;8.88;;;9.40;99.90;;;;;;5073776;28;20097;-67
2023/05/26 01:22:56;;;;;;;28.83;5.85;;;9.60;99.90;;;;;;5073072;28;20495;-67
2023/05/26 01:25:37;;;;;;;26.05;5.18;;;9.30;99.90;;;;;;5073854;28;20066;-66
2023/05/26 01:28:15;;;;;;;30.80;6.47;;;9.40;99.90;;;;;;5073506;28;20597;-66
2023/05/26 01:30:43;;;;;;;28.33;5.82;;;9.30;99.90;;;;;;5073519;28;20102;-67
2023/05/26 01:33:08;;;;;;;28.85;6.32;;;9.40;99.90;;;;;;5072670;28;20086;-66
2023/05/26 01:35:34;;;;;;;34.42;7.25;;;9.30;99.90;;;;;;5071937;28;20480;-66
2023/05/26 01:38:01;;;;;;;24.25;5.72;;;9.30;99.90;;;;;;5072762;28;20041;-66
2023/05/26 01:40:28;;;;;;;24.92;4.85;;;9.40;99.90;;;;;;5073361;28;20089;-67
2023/05/26 01:43:24;;;;;;;26.25;6.05;;;9.30;99.90;;;;;;5071737;28;20047;-66
2023/05/26 01:46:29;;;;;;;36.75;6.68;;;9.20;99.90;;;;;;5072793;28;20094;-66
2023/05/26 01:48:59;;;;;;;36.10;7.50;;;9.30;99.90;;;;;;5060785;28;20048;-67
2023/05/26 01:51:30;;;;;;;31.50;6.20;;;9.20;99.90;;;;;;5053054;28;20040;-66
2023/05/26 01:54:00;;;;;;;23.75;5.25;;;9.40;99.90;;;;;;5052297;28;20048;-66
2023/05/26 01:56:26;;;;;;;27.42;6.40;;;9.10;99.90;;;;;;5053023;28;20037;-66
2023/05/26 01:58:52;;;;;;;26.45;6.25;;;;;;;;;;5053107;28;20098;-66
2023/05/26 02:01:18;;;;;;;25.13;5.60;;;;;;;;;;5052995;28;20041;-66
2023/05/26 02:03:44;;;;;;;27.60;5.70;;;9.20;99.90;;;;;;5051500;28;20104;-67
2023/05/26 02:06:10;;;;;;;36.53;5.93;;;9.10;99.90;;;;;;5053601;28;20124;-67
2023/05/26 02:08:38;;;;;;;25.45;5.85;;;9.20;99.90;;;;;;5052662;28;20520;-66
2023/05/26 02:11:04;;;;;;;30.58;6.57;;;9.10;99.90;;;;;;5052896;28;20041;-66
2023/05/26 02:13:29;;;;;;;33.75;6.35;;;9.00;99.90;;;;;;5052146;28;20041;-67
2023/05/26 02:15:55;;;;;;;28.70;5.63;;;;;;;;;;5051586;28;20037;-66
2023/05/26 02:18:22;;;;;;;24.10;5.97;;;;;;;;;;5052412;28;20037;-67
2023/05/26 02:20:48;;;;;;;35.17;7.10;;;;;;;;;;5052518;28;20041;-66
2023/05/26 02:23:14;;;;;;;24.08;6.13;;;;;;;;;;5052774;28;20047;-66
2023/05/26 02:25:40;;;;;;;27.63;6.60;;;;;;;;;;5052375;28;20433;-67
2023/05/26 02:28:07;;;;;;;20.85;4.70;;;;;;;;;;5052340;28;20144;-66
2023/05/26 02:30:32;;;;;;;27.35;6.53;;;9.00;99.90;;;;;;5052465;28;20040;-66
2023/05/26 02:32:58;;;;;;;22.50;5.47;;;;;;;;;;5051613;28;20045;-66
2023/05/26 02:35:24;;;;;;;31.15;6.40;;;;;;;;;;5052356;28;20119;-67
2023/05/26 02:37:50;;;;;;;26.52;6.45;;;8.90;99.90;;;;;;5051841;28;20079;-67
2023/05/26 02:40:16;;;;;;;30.75;6.90;;;9.00;99.90;;;;;;5054969;28;20032;-66
2023/05/26 02:42:41;;;;;;;32.10;6.45;;;9.00;99.90;;;;;;5070481;28;20033;-66
2023/05/26 02:45:07;;;;;;;22.00;5.68;;;9.00;99.90;;;;;;5072230;28;20070;-66
2023/05/26 02:47:34;;;;;;;26.15;5.05;;;;;;;;;;5070416;28;20045;-66
2023/05/26 02:49:59;;;;;;;26.60;6.97;;;9.00;99.90;;;;;;5071661;28;20044;-66
2023/05/26 02:52:25;;;;;;;24.92;6.03;;;;;;;;;;5071167;28;20085;-66
2023/05/26 02:54:51;;;;;;;19.70;4.90;;;;;;;;;;5071842;28;20518;-66
2023/05/26 02:57:17;;;;;;;27.63;6.20;;;;;;;;;;5070145;28;20036;-66
2023/05/26 02:59:43;;;;;;;20.65;5.60;;;;;;;;;;5071640;28;20032;-67
2023/05/26 03:02:10;;;;;;;38.00;6.28;;;;;;;;;;5071119;28;20500;-64
2023/05/26 03:04:36;;;;;;;41.08;6.85;;;;;;;;;;5071673;28;20408;-67
2023/05/26 03:07:02;;;;;;;28.60;6.80;;;;;;;;;;5071237;28;20042;-67
2023/05/26 03:09:27;;;;;;;33.92;5.88;;;8.80;99.90;;;;;;5071737;28;20052;-66
2023/05/26 03:11:53;;;;;;;23.73;6.43;;;8.90;99.90;;;;;;5071775;28;20041;-67
2023/05/26 03:14:19;;;;;;;31.80;5.32;;;8.90;99.90;;;;;;5067776;28;20395;-67
2023/05/26 03:16:45;;;;;;;29.20;6.57;;;;;;;;;;5051474;28;20087;-66
2023/05/26 03:19:11;;;;;;;23.08;5.78;;;;;;;;;;5051806;28;20037;-66
2023/05/26 03:21:37;;;;;;;21.17;5.43;;;;;;;;;;5051333;28;20532;-66
2023/05/26 03:24:03;;;;;;;24.17;5.72;;;;;;;;;;5051282;28;20065;-67
2023/05/26 03:26:28;;;;;;;26.98;6.20;;;8.80;99.90;;;;;;5050904;28;20098;-66
2023/05/26 03:28:57;;;;;;;21.23;5.22;;;8.80;99.90;;;;;;5050226;28;20040;-66
2023/05/26 03:31:22;;;;;;;30.45;6.18;;;8.80;99.90;;;;;;5062959;28;20086;-66
2023/05/26 03:33:48;;;;;;;26.95;5.70;;;8.90;99.90;;;;;;5070930;28;20470;-67
2023/05/26 03:36:14;;;;;;;25.98;6.05;;;;;;;;;;5071173;28;20068;-67
2023/05/26 03:38:40;;;;;;;28.60;6.65;;;;;;;;;;5071469;28;20041;-67
2023/05/26 03:41:06;;;;;;;27.95;6.43;;;;;;;;;;5070688;28;20036;-66
2023/05/26 03:43:32;;;;;;;26.73;5.78;;;;;;;;;;5055748;28;20508;-67
2023/05/26 03:45:57;;;;;;;25.25;6.03;;;8.90;99.90;;;;;;5059495;28;20134;-66
2023/05/26 03:48:23;;;;;;;26.75;6.78;;;8.80;99.90;;;;;;5049780;28;20037;-66
2023/05/26 03:50:48;;;;;;;24.85;6.22;;;9.00;99.90;;;;;;5051274;28;20116;-66
2023/05/26 03:53:14;;;;;;;25.15;5.65;;;;;;;;;;5050608;28;20037;-67
2023/05/26 03:55:40;;;;;;;30.67;5.65;;;;;;;;;;5051435;28;20037;-66
2023/05/26 03:58:06;;;;;;;26.33;5.35;;;8.90;99.90;;;;;;5050875;28;20043;-67
2023/05/26 04:00:32;;;;;;;30.73;5.60;;;;;;;;;;5051760;28;20642;-67
2023/05/26 04:02:58;;;;;;;25.33;5.43;;;;;;;;;;5065335;28;20037;-67
2023/05/26 04:05:25;;;;;;;30.42;6.47;;;9.00;99.90;;;;;;5071125;28;20040;-67
2023/05/26 04:07:50;;;;;;;27.00;6.32;;;8.90;99.90;;;;;;5070907;28;20126;-66
2023/05/26 04:10:16;;;;;;;27.15;6.20;;;9.00;99.90;;;;;;5070907;28;20492;-66
2023/05/26 04:12:42;;;;;;;38.88;7.45;;;8.90;99.90;;;;;;5070597;28;20044;-66
2023/05/26 04:15:09;;;;;;;26.77;4.82;;;8.90;99.90;;;;;;5070986;28;20090;-66
2023/05/26 04:17:35;;;;;;;27.13;6.10;;;;;;;;;;5070915;28;20404;-66
2023/05/26 04:20:01;;;;;;;21.63;5.53;;;;;;;;;;5052622;28;20037;-66
2023/05/26 04:22:26;;;;;;;26.27;6.53;;;9.10;99.90;;;;;;5050413;28;20099;-67
2023/05/26 04:24:52;;;;;;;22.25;5.57;;;9.30;99.90;;;;;;5050905;28;20525;-66
2023/05/26 04:27:17;;;;;;;28.60;5.15;;;9.20;99.90;;;;;;5050905;28;20412;-66
2023/05/26 04:29:43;;;;;;;30.50;5.60;;;;;;;;;;5050997;28;20043;-66
2023/05/26 04:32:11;;;;;;;25.08;6.65;;;;;;;;;;5050580;28;20045;-64
2023/05/26 04:34:38;;;;;;;28.52;6.05;;;9.20;99.90;;;;;;5051888;28;20107;-66
2023/05/26 04:37:04;;;;;;;23.83;5.40;;;9.40;99.90;;;;;;5051078;28;20044;-67
2023/05/26 04:39:33;;;;;;;24.45;5.10;;;9.40;99.90;;;;;;5052586;28;20041;-66
2023/05/26 04:41:59;;;;;;;34.53;5.68;;;;;;;;;;5054229;28;20116;-66
2023/05/26 04:44:25;;;;;;;22.42;6.25;;;;;;;;;;5053885;28;20052;-67
2023/05/26 04:46:52;;;;;;;27.05;6.13;;;;;;;;;;5054014;28;20040;-66
2023/05/26 04:49:22;;;;;;;23.30;5.35;;;9.60;99.90;;;;;;5055190;28;20041;-67
2023/05/26 04:51:50;;;;;;;35.08;5.97;;;9.70;99.90;;;;;;5054680;28;20037;-66
2023/05/26 04:54:16;;;;;;;33.13;5.47;;;;;;;;;;5053654;28;20583;-66
2023/05/26 04:56:42;;;;;;;28.15;5.22;;;;;;;;;;5053918;28;20044;-66
2023/05/26 04:59:08;;;;;;;28.48;5.68;;;;;;;;;;5054741;28;20041;-67
2023/05/26 05:01:34;;;;;;;26.83;5.55;;;;;;;;;;5054134;28;20117;-66
2023/05/26 05:03:59;;;;;;;22.20;5.05;;;9.90;99.90;;;;;;5053636;28;20040;-67
2023/05/26 05:06:25;;;;;;;25.75;5.30;;;10.00;99.90;;;;;;5053546;28;20098;-66
2023/05/26 05:08:50;;;;;;;22.38;5.82;;;10.10;99.90;;;;;;5054938;28;20037;-66
2023/05/26 05:11:17;;;;;;;29.35;6.20;;;;;;;;;;5068780;28;20119;-66
2023/05/26 05:13:43;;;;;;;24.85;6.60;;;;;;;;;;5072823;28;20492;-66
2023/05/26 05:16:09;;;;;;;23.83;5.07;;;;;;;;;;5073181;28;20091;-66
2023/05/26 05:18:35;;;;;;;19.33;4.80;;;10.20;99.90;;;;;;5073627;28;20404;-67
2023/05/26 05:21:01;;;;;;;27.67;5.10;;;;;;;;;;5073797;28;20037;-66
2023/05/26 05:23:34;;;;;;;24.77;6.20;;;10.60;99.90;;;;;;5073194;28;20041;-67
2023/05/26 05:26:00;;;;;;;27.75;4.40;;;10.70;99.90;;;;;;5071662;28;20062;-66
2023/05/26 05:28:26;;;;;;;34.72;5.88;;;10.60;99.90;;;;;;5073524;28;20115;-66
2023/05/26 05:30:51;;;;;;;27.67;5.47;;;10.70;99.90;;;;;;5073656;28;20587;-67
2023/05/26 05:33:17;;;;;;;24.02;6.63;;;;;;;;;;5072840;28;20041;-67
2023/05/26 05:35:45;;;;;;;28.40;6.00;;;;;;;;;;5073502;28;20033;-66
2023/05/26 05:38:11;;;;;;;29.13;5.68;;;11.00;99.90;;;;;;5073082;28;20041;-66
2023/05/26 05:40:36;;;;;;;30.90;6.35;;;11.00;99.90;;;;;;5060265;28;20160;-67
2023/05/26 05:43:02;;;;;;;31.15;6.95;;;11.20;99.90;;;;;;5053559;28;20056;-66
2023/05/26 05:45:28;;;;;;;19.35;5.38;;;;;;;;;;5053088;28;20040;-66
2023/05/26 05:47:53;;;;;;;27.90;5.70;;;11.40;99.90;;;;;;5053012;28;20032;-67
2023/05/26 05:50:19;;;;;;;26.52;6.13;;;11.40;99.90;;;;;;5052737;28;20033;-67
2023/05/26 05:52:45;;;;;;;18.75;6.75;;;;;;;;;;5052345;28;20084;-67
2023/05/26 05:55:11;;;;;;;23.85;5.75;;;11.60;99.90;;;;;;5054565;28;20044;-66
2023/05/26 05:57:37;;;;;;;27.30;5.78;;;11.70;99.90;;;;;;5066483;28;20412;-67
2023/05/26 06:00:04;;;;;;;22.27;4.63;;;11.90;99.90;;;;;;5055636;28;20052;-66
2023/05/26 06:02:30;;;;;;;20.55;4.45;;;11.80;99.90;;;;;;5055824;28;20040;-67
2023/05/26 06:04:56;;;;;;;31.88;5.13;;;12.20;99.90;;;;;;5064761;28;20032;-67
2023/05/26 06:07:21;;;;;;;24.27;6.03;;;12.20;99.90;;;;;;5064983;28;20036;-66
2023/05/26 06:09:47;;;;;;;28.38;4.80;;;;;;;;;;5063190;28;20527;-67
2023/05/26 06:12:13;;;;;;;23.88;5.28;;;12.20;99.90;;;;;;5063435;28;20036;-66
2023/05/26 06:14:39;;;;;;;20.05;5.30;;;;;;;;;;5061363;28;20040;-66
2023/05/26 06:17:04;;;;;;;25.65;5.20;;;12.40;99.90;;;;;;5062399;28;20040;-67
2023/05/26 06:19:31;;;;;;;29.35;4.85;;;12.40;99.90;;;;;;5072404;28;20045;-67
2023/05/26 06:21:57;;;;;;;23.88;5.18;;;12.30;99.90;;;;;;5066300;28;20049;-67
2023/05/26 06:24:22;;;;;;;21.55;5.65;;;12.20;99.90;;;;;;5059808;28;20040;-67
2023/05/26 06:26:48;;;;;;;19.30;4.47;;;12.30;99.90;;;;;;5051997;28;20049;-66
2023/05/26 06:29:16;;;;;;;20.70;5.40;;;;;;;;;;5052598;28;20480;-67
2023/05/26 06:31:42;;;;;;;24.55;4.22;;;;;;;;;;5052434;28;20045;-67
2023/05/26 06:34:08;;;;;;;24.02;3.88;;;;;;;;;;5067654;28;20090;-66
2023/05/26 06:36:35;;;;;;;28.80;5.15;;;12.70;99.90;;;;;;5052266;28;20036;-67
2023/05/26 06:39:01;;;;;;;17.88;4.45;;;12.90;99.90;;;;;;5051994;28;20098;-67
2023/05/26 06:41:27;;;;;;;19.10;3.88;;;;;;;;;;5052671;28;20036;-66
2023/05/26 06:43:53;;;;;;;23.23;5.10;;;;;;;;;;5063266;28;20060;-66
2023/05/26 06:46:19;;;;;;;14.63;4.05;;;;;;;;;;5062292;28;20040;-67
2023/05/26 06:48:45;;;;;;;18.58;4.13;;;;;;;;;;5060743;28;20080;-67
2023/05/26 06:51:11;;;;;;;27.65;4.88;;;;;;;;;;5066154;28;20044;-67
2023/05/26 06:53:38;;;;;;;17.67;4.40;;;13.40;99.90;;;;;;5051628;28;20113;-67
2023/05/26 06:56:07;;;;;;;20.30;4.25;;;13.20;99.90;;;;;;5052154;28;20044;-67
2023/05/26 06:58:36;;;;;;;19.50;4.00;;;13.30;99.90;;;;;;5055582;28;20467;-67
2023/05/26 07:01:11;;;;;;;22.35;4.55;;;;;;;;;;5060589;28;20045;-66
2023/05/26 07:03:37;;;;;;;27.00;6.45;;;;;;;;;;5051209;28;20047;-66
2023/05/26 07:06:03;;;;;;;24.95;4.03;;;;;;;;;;5050796;28;20126;-66
2023/05/26 07:08:29;;;;;;;14.93;4.25;;;;;;;;;;5060713;28;20512;-67
2023/05/26 07:10:54;;;;;;;19.60;4.15;;;13.70;99.90;;;;;;5060128;28;20047;-67
2023/05/26 07:13:20;;;;;;;15.75;3.92;;;;;;;;;;5065190;28;20048;-67
2023/05/26 07:15:46;;;;;;;18.65;4.60;;;;;;;;;;5052561;28;20049;-66
2023/05/26 07:18:13;;;;;;;15.23;4.00;;;;;;;;;;5046834;28;20435;-66
2023/05/26 07:20:39;;;;;;;11.95;3.22;;;;;;;;;;5046891;28;20044;-67
2023/05/26 07:23:05;;;;;;;15.30;3.75;;;;;;;;;;5046619;28;20036;-66
2023/05/26 07:25:30;;;;;;;17.63;3.58;;;13.80;99.90;;;;;;5056796;28;20103;-67
2023/05/26 07:27:56;;;;;;;19.30;4.57;;;13.90;99.90;;;;;;5046742;28;20108;-67
2023/05/26 07:30:22;;;;;;;20.17;3.95;;;;;;;;;;5047232;28;20488;-67
2023/05/26 07:32:48;;;;;;;22.73;5.05;;;;;;;;;;5047159;28;20116;-66
2023/05/26 07:35:14;;;;;;;25.90;4.28;;;;;;;;;;5047006;28;20036;-66
2023/05/26 07:37:40;;;;;;;17.25;3.80;;;14.30;99.90;;;;;;5061096;28;20059;-67
2023/05/26 07:40:06;;;;;;;16.88;4.45;;;14.30;99.90;;;;;;5066074;28;20497;-67
2023/05/26 07:42:33;;;;;;;18.60;4.45;;;14.20;99.90;;;;;;5058807;28;20554;-66
2023/05/26 07:44:59;;;;;;;13.32;3.33;;;;;;;;;;5065325;28;20040;-66
2023/05/26 07:47:25;;;;;;;14.98;3.78;;;14.10;99.90;;;;;;5068110;28;20124;-66
2023/05/26 07:49:50;;;;;;;14.20;4.05;;;14.30;99.90;;;;;;5069754;28;20048;-66
2023/05/26 07:52:16;;;;;;;13.13;3.35;;;;;;;;;;5051724;28;20045;-65
2023/05/26 07:54:42;;;;;;;18.25;3.53;;;;;;;;;;5050681;28;20041;-66
2023/05/26 07:57:08;;;;;;;17.23;3.72;;;;;;;;;;5049770;28;20041;-66
2023/05/26 07:59:34;;;;;;;15.98;2.90;;;14.50;99.90;;;;;;5055499;28;20377;-66
2023/05/26 08:02:00;;;;;;;13.88;4.00;;;14.70;99.90;;;;;;5070633;28;20040;-66
2023/05/26 08:04:25;;;;;;;14.43;2.92;;;14.70;99.90;;;;;;5059701;28;21106;-66
2023/05/26 08:06:51;;;;;;;15.35;3.17;;;;;;;;;;5064187;28;20779;-66
2023/05/26 08:09:17;;;;;;;21.08;3.13;;;;;;;;;;5071509;28;20044;-66
2023/05/26 08:11:43;;;;;;;17.55;3.92;;;;;;;;;;5070771;28;20149;-65
2023/05/26 08:14:09;;;;;;;15.02;3.72;;;15.00;99.90;;;;;;5073301;28;20052;-66
2023/05/26 08:16:35;;;;;;;16.75;4.57;;;15.10;99.90;;;;;;5068470;28;20523;-66
2023/05/26 08:19:01;;;;;;;13.40;4.05;;;15.00;99.90;;;;;;5054784;28;20040;-66
2023/05/26 08:21:27;;;;;;;16.55;3.53;;;;;;;;;;5052218;28;20490;-66
2023/05/26 08:23:53;;;;;;;17.33;4.18;;;;;;;;;;5047868;28;20048;-66
2023/05/26 08:26:18;;;;;;;15.70;3.60;;;15.10;99.90;;;;;;5065576;28;20467;-67
2023/05/26 08:28:44;;;;;;;25.77;5.28;;;;;;;;;;5053856;28;20044;-66
2023/05/26 08:31:10;;;;;;;14.27;3.55;;;;;;;;;;5070639;28;20041;-67
2023/05/26 08:33:36;;;;;;;18.90;3.70;;;;;;;;;;5065650;28;20516;-66
2023/05/26 08:36:02;;;;;;;10.70;2.78;;;;;;;;;;5055264;28;20075;-66
2023/05/26 08:38:30;;;;;;;15.82;3.45;;;;;;;;;;5062869;28;20585;-66
2023/05/26 08:40:57;;;;;;;14.18;3.28;;;15.50;99.90;;;;;;5063579;28;20032;-66
2023/05/26 08:43:32;;;;;;;18.98;3.38;;;15.50;99.90;;;;;;5063208;28;20037;-67
2023/05/26 08:46:01;;;;;;;17.77;3.60;;;15.70;99.90;;;;;;5063060;28;20043;-67
2023/05/26 08:48:26;;;;;;;14.45;3.80;;;15.50;99.90;;;;;;5063439;28;20029;-66
2023/05/26 08:50:56;;;;;;;11.50;3.13;;;15.40;99.90;;;;;;5063068;28;20052;-66
2023/05/26 08:53:24;;;;;;;18.77;3.88;;;;;;;;;;5062872;28;20048;-66
2023/05/26 08:55:50;;;;;;;15.35;3.95;;;15.70;99.90;;;;;;5063080;28;20048;-67
2023/05/26 08:58:16;;;;;;;12.90;4.63;;;15.70;99.90;;;;;;5062246;28;21495;-68
2023/05/26 09:00:45;;;;;;;13.57;3.10;;;15.60;99.90;;;;;;5055547;28;20623;-66
2023/05/26 09:03:11;;;;;;;14.77;4.72;;;15.40;99.90;;;;;;5053358;28;20450;-67
2023/05/26 09:05:36;;;;;;;14.43;3.25;;;15.20;99.90;;;;;;5054243;28;20112;-67
2023/05/26 09:08:02;;;;;;;14.00;3.28;;;15.80;99.90;;;;;;5062727;28;20117;-67
2023/05/26 09:10:32;;;;;;;13.55;3.83;;;15.80;99.90;;;;;;5073751;28;20119;-67
2023/05/26 09:13:05;;;;;;;12.38;3.63;;;15.60;99.90;;;;;;5073404;28;20039;-67
2023/05/26 09:15:31;;;;;;;;;;;15.80;99.90;;;;;;5074051;28;20044;-67
2023/05/26 09:18:04;;;;;;;19.70;4.55;;;16.10;99.90;;;;;;5073591;28;19974;-67
2023/05/26 09:20:30;;;;;;;17.25;3.95;;;16.00;99.90;;;;;;5073967;28;20040;-67
2023/05/26 09:22:57;;;;;;;23.25;4.90;;;16.20;99.90;;;;;;5073255;28;20036;-67
2023/05/26 09:25:33;;;;;;;16.60;3.75;;;16.40;99.90;;;;;;5071213;28;20519;-68
2023/05/26 09:28:03;;;;;;;9.85;4.15;;;15.60;99.90;;;;;;5073071;28;20048;-67
2023/05/26 09:30:37;;;;;;;13.02;3.58;;;15.70;99.90;;;;;;5073241;28;20048;-67
2023/05/26 09:33:09;;;;;;;13.80;3.60;;;16.00;99.90;;;;;;5072957;28;20060;-67
2023/05/26 09:35:40;;;;;;;16.17;3.42;;;15.60;99.90;;;;;;5068893;28;20072;-67
2023/05/26 09:38:07;;;;;;;13.25;4.40;;;15.80;99.90;;;;;;5057517;28;20045;-68
2023/05/26 09:40:33;;;;;;;15.75;4.53;;;;;;;;;;5072723;28;20075;-67
2023/05/26 09:43:00;;;;;;;11.77;3.22;;;16.00;99.90;;;;;;5071550;28;20051;-67
2023/05/26 09:45:26;;;;;;;14.23;3.83;;;;;;;;;;5073016;28;20032;-67
2023/05/26 09:47:55;;;;;;;19.02;3.90;;;16.10;99.90;;;;;;5073084;28;20040;-68
2023/05/26 09:50:21;;;;;;;13.20;2.80;;;;;;;;;;5072837;28;20032;-67
2023/05/26 09:52:48;;;;;;;13.63;3.80;;;16.00;99.90;;;;;;5072462;28;20044;-67
2023/05/26 09:55:14;;;;;;;14.23;4.25;;;15.80;99.90;;;;;;5072848;28;20051;-67
2023/05/26 09:57:41;;;;;;;12.80;3.53;;;15.80;99.90;;;;;;5072476;28;20378;-67
2023/05/26 10:00:10;;;;;;;14.07;3.10;;;16.00;99.90;;;;;;5071655;28;20045;-67
2023/05/26 10:02:37;;;;;;;14.68;3.88;;;16.50;99.90;;;;;;5072349;28;20085;-67
2023/05/26 10:05:03;;;;;;;12.77;3.40;;;;;;;;;;5055434;28;20037;-67
2023/05/26 10:07:30;;;;;;;15.18;4.53;;;16.60;99.90;;;;;;5048877;28;20075;-67
2023/05/26 10:09:58;;;;;;;12.77;2.97;;;16.50;99.90;;;;;;5061529;28;20045;-68
2023/05/26 10:12:32;;;;;;;15.88;3.65;;;16.50;99.90;;;;;;5046751;28;20489;-67
2023/05/26 10:14:58;;;;;;;17.50;3.50;;;16.70;99.90;;;;;;5048725;28;20048;-67
2023/05/26 10:17:25;;;;;;;14.73;3.58;;;16.70;99.90;;;;;;5047541;28;20029;-68
2023/05/26 10:19:52;;;;;;;18.65;3.90;;;16.90;99.90;;;;;;5050592;28;20097;-67
2023/05/26 10:22:45;;;;;;;14.38;3.47;;;17.00;99.90;;;;;;5048169;28;20473;-67
2023/05/26 10:25:16;;;;;;;14.40;3.33;;;16.60;99.90;;;;;;5053396;28;20480;-67
2023/05/26 10:27:56;;;;;;;10.85;2.70;;;16.90;99.90;;;;;;5055819;28;20079;-67
2023/05/26 10:30:22;;;;;;;16.10;4.22;;;;;;;;;;5050115;28;20044;-67
2023/05/26 10:32:56;;;;;;;20.23;3.42;;;17.10;99.90;;;;;;5049961;28;20447;-67
2023/05/26 10:35:28;;;;;;;17.60;3.47;;;17.10;99.90;;;;;;5067671;28;20032;-67
2023/05/26 10:38:01;;;;;;;13.63;3.83;;;17.00;99.90;;;;;;5069867;28;20037;-67
2023/05/26 10:40:29;;;;;;;13.75;3.10;;;17.30;99.90;;;;;;5068764;28;20147;-67
2023/05/26 10:43:10;;;;;;;16.50;4.20;;;16.70;99.90;;;;;;5045003;28;20461;-67
2023/05/26 10:45:52;;;;;;;17.90;4.40;;;16.30;99.90;;;;;;5051841;28;20033;-67
2023/05/26 10:48:18;;;;;;;11.85;3.58;;;16.30;99.90;;;;;;5047439;28;20041;-67
2023/05/26 10:50:59;;;;;;;16.17;3.80;;;16.40;99.90;;;;;;5063402;28;20455;-67
2023/05/26 10:53:29;;;;;;;22.00;4.03;;;16.70;99.90;;;;;;5069500;28;20037;-67
2023/05/26 10:55:58;;;;;;;13.25;3.30;;;17.00;99.90;;;;;;5071221;28;20029;-67
2023/05/26 10:58:27;;;;;;;18.23;4.97;;;16.50;99.90;;;;;;5070930;28;20111;-67
2023/05/26 11:01:03;;;;;;;15.07;3.90;;;16.80;99.90;;;;;;5062775;28;20104;-68
2023/05/26 11:03:43;;;;;;;17.50;4.30;;;16.80;99.90;;;;;;5069451;28;20523;-67
2023/05/26 11:06:12;;;;;;;12.65;3.25;;;17.00;99.90;;;;;;5058637;28;20049;-68
2023/05/26 11:08:49;;;;;;;13.35;3.75;;;16.60;99.90;;;;;;5067795;28;20047;-68
2023/05/26 11:11:29;;;;;;;16.98;4.35;;;16.80;99.90;;;;;;5070389;28;20036;-68
2023/05/26 11:14:09;;;;;;;12.70;4.03;;;17.00;99.90;;;;;;5051185;28;20049;-68
2023/05/26 11:16:38;;;;;;;16.65;3.80;;;17.20;99.90;;;;;;5050451;28;20043;-68
2023/05/26 11:19:05;;;;;;;20.33;4.85;;;16.50;99.90;;;;;;5053063;28;20132;-68
2023/05/26 11:21:33;;;;;;;15.52;3.63;;;16.40;99.90;;;;;;5069617;28;20492;-69
2023/05/26 11:24:00;;;;;;;18.35;4.13;;;17.20;99.90;;;;;;5068018;28;20044;-67
2023/05/26 11:26:27;;;;;;;11.57;3.58;;;17.10;99.90;;;;;;5059039;28;20500;-69
2023/05/26 11:28:54;;;;;;;24.40;3.67;;;17.20;99.90;;;;;;5059840;28;20492;-68
2023/05/26 11:31:23;;;;;;;17.20;4.28;;;17.30;99.90;;;;;;5054187;28;20698;-68
2023/05/26 11:33:49;;;;;;;13.88;4.03;;;16.80;99.90;;;;;;5059819;28;20045;-67
2023/05/26 11:36:16;;;;;;;16.25;3.83;;;17.10;99.90;;;;;;5049143;28;20040;-68
2023/05/26 11:38:43;;;;;;;19.50;4.45;;;17.30;99.90;;;;;;5070628;28;20416;-67
2023/05/26 11:41:11;;;;;;;15.60;4.30;;;17.30;99.90;;;;;;5062121;28;20081;-68
2023/05/26 11:43:38;;;;;;;18.98;4.72;;;17.50;99.90;;;;;;5049616;28;20036;-67
2023/05/26 11:46:07;;;;;;;15.13;4.25;;;17.80;99.90;;;;;;5053703;28;20043;-67
2023/05/26 11:48:39;;;;;;;15.95;3.85;;;17.50;99.90;;;;;;5071705;28;20087;-67
2023/05/26 11:51:14;;;;;;;14.40;4.00;;;17.20;99.90;;;;;;5075585;28;20093;-68
2023/05/26 11:53:42;;;;;;;16.70;3.65;;;17.40;99.90;;;;;;5074748;28;20124;-68
2023/05/26 11:56:15;;;;;;;14.13;4.40;;;17.70;99.90;;;;;;5075326;28;20447;-68
2023/05/26 11:58:48;;;;;;;;;;;17.30;99.90;;;;;;5074305;28;20033;-69
2023/05/26 12:01:16;;;;;;;23.63;5.57;;;17.00;99.90;;;;;;5073953;28;19929;-68
2023/05/26 12:03:45;;;;;;;13.15;4.13;;;17.10;99.90;;;;;;5075599;28;20396;-66
2023/05/26 12:06:19;;;;;;;15.13;4.53;;;16.90;99.90;;;;;;5062024;28;20036;-68
2023/05/26 12:08:58;;;;;;;20.55;5.40;;;17.60;99.90;;;;;;5055681;28;20504;-67
2023/05/26 12:11:37;;;;;;;17.65;5.13;;;17.10;99.90;;;;;;5066060;28;20055;-67
2023/05/26 12:14:04;;;;;;;16.90;4.03;;;17.30;99.90;;;;;;5075135;28;20052;-66
2023/05/26 12:16:35;;;;;;;13.80;4.28;;;17.10;99.90;;;;;;5072674;28;20119;-68
2023/05/26 12:19:04;;;;;;;18.60;5.45;;;17.80;99.90;;;;;;5065680;28;20045;-68
2023/05/26 12:21:31;;;;;;;16.85;4.47;;;18.00;99.90;;;;;;5057541;28;20048;-67
2023/05/26 12:23:58;;;;;;;18.40;4.53;;;17.70;99.90;;;;;;5061265;28;20071;-67
2023/05/26 12:26:27;;;;;;;14.93;4.57;;;17.90;99.90;;;;;;5064526;28;20419;-67
2023/05/26 12:29:16;;;;;;;16.40;3.63;;;17.80;99.90;;;;;;5065558;28;20073;-67
2023/05/26 12:31:48;;;;;;;13.15;3.88;;;18.00;99.90;;;;;;5055501;28;20400;-66
2023/05/26 12:34:24;;;;;;;15.65;4.35;;;17.10;99.90;;;;;;5054134;28;20385;-67
2023/05/26 12:36:50;;;;;;;17.02;4.72;;;16.90;99.90;;;;;;5052029;28;20225;-66
2023/05/26 12:39:17;;;;;;;14.13;3.85;;;17.70;99.90;;;;;;5053492;28;20032;-67
2023/05/26 12:41:45;;;;;;;16.92;4.75;;;17.70;99.90;;;;;;5053352;28;20081;-67
2023/05/26 12:44:11;;;;;;;15.88;4.18;;;17.30;99.90;;;;;;5070715;28;20044;-67
2023/05/26 12:46:41;;;;;;;16.88;4.45;;;17.40;99.90;;;;;;5073698;28;20051;-67
2023/05/26 12:49:07;;;;;;;15.50;4.97;;;17.70;99.90;;;;;;5062595;28;20312;-67
2023/05/26 12:51:34;;;;;;;14.55;4.43;;;18.00;99.90;;;;;;5073287;28;20040;-68
2023/05/26 12:54:03;;;;;;;16.08;3.47;;;18.20;99.90;;;;;;5060477;28;20041;-67
2023/05/26 12:56:29;;;;;;;15.00;4.32;;;18.00;99.90;;;;;;5053038;28;20048;-67
2023/05/26 12:58:55;;;;;;;18.33;4.05;;;17.20;99.90;;;;;;5052262;28;20037;-66
2023/05/26 13:01:21;;;;;;;19.42;4.30;;;17.40;99.90;;;;;;5067263;28;20551;-68
2023/05/26 13:03:48;;;;;;;20.48;4.72;;;18.10;99.90;;;;;;5072400;28;20550;-67
2023/05/26 13:06:14;;;;;;;17.70;5.57;;;17.00;99.90;;;;;;5059490;28;20566;-68
2023/05/26 13:08:40;;;;;;;19.77;4.60;;;17.30;99.90;;;;;;5072967;28;20040;-68
2023/05/26 13:11:06;;;;;;;17.35;4.80;;;17.70;99.90;;;;;;5071905;28;20500;-68
2023/05/26 13:13:32;;;;;;;18.75;4.97;;;17.70;99.90;;;;;;5059761;28;20045;-68
2023/05/26 13:15:58;;;;;;;18.40;4.32;;;17.00;99.90;;;;;;5053106;28;20453;-68